createdAt,value
2019-01-06T00:00:24.246Z,18.2
2019-01-06T00:01:24.422Z,18.2
2019-01-06T00:02:24.626Z,18.19
2019-01-06T00:03:24.233Z,18.19
2019-01-06T00:04:24.848Z,18.18
2019-01-06T00:05:24.387Z,18.15
2019-01-06T00:06:24.282Z,18.18
2019-01-06T00:07:24.187Z,18.15
2019-01-06T00:08:24.239Z,18.16
2019-01-06T00:09:24.473Z,18.16
2019-01-06T00:10:24.647Z,18.15
2019-01-06T00:11:24.329Z,18.16
2019-01-06T00:12:24.276Z,18.15
2019-01-06T00:13:24.380Z,18.14
2019-01-06T00:14:24.311Z,18.14
2019-01-06T00:15:24.180Z,18.14
2019-01-06T00:16:24.678Z,18.13
2019-01-06T00:17:24.376Z,18.13
2019-01-06T00:18:24.315Z,18.13
2019-01-06T00:19:24.151Z,18.13
2019-01-06T00:20:24.401Z,18.12
2019-01-06T00:21:24.341Z,18.11
2019-01-06T00:22:24.112Z,18.11
2019-01-06T00:23:24.287Z,18.11
2019-01-06T00:24:24.052Z,18.1
2019-01-06T00:25:24.244Z,18.11
2019-01-06T00:26:24.111Z,18.09
2019-01-06T00:27:24.279Z,18.09
2019-01-06T00:28:24.650Z,18.09
2019-01-06T00:29:24.480Z,18.08
2019-01-06T00:30:24.210Z,18.07
2019-01-06T00:31:24.313Z,18.08
2019-01-06T00:32:24.444Z,18.07
2019-01-06T00:33:24.395Z,18.07
2019-01-06T00:34:24.274Z,18.06
2019-01-06T00:35:24.203Z,18.06
2019-01-06T00:36:24.162Z,18.06
2019-01-06T00:37:24.145Z,18.05
2019-01-06T00:38:24.269Z,18.06
2019-01-06T00:39:24.269Z,18.04
2019-01-06T00:40:24.694Z,18.06
2019-01-06T00:41:24.309Z,18.04
2019-01-06T00:42:24.299Z,18.04
2019-01-06T00:43:24.477Z,18.06
2019-01-06T00:44:25.177Z,18.04
2019-01-06T00:45:24.709Z,18.04
2019-01-06T00:46:24.167Z,18.04
2019-01-06T00:47:24.718Z,18.03
2019-01-06T00:48:24.042Z,18.03
2019-01-06T00:49:24.348Z,18.03
2019-01-06T00:50:24.076Z,18.03
2019-01-06T00:51:24.591Z,18.02
2019-01-06T00:52:24.193Z,18.01
2019-01-06T00:53:24.179Z,18
2019-01-06T00:54:24.309Z,18
2019-01-06T00:55:24.291Z,18.01
2019-01-06T00:56:24.149Z,18
2019-01-06T00:57:24.480Z,18
2019-01-06T00:58:24.288Z,17.99
2019-01-06T00:59:24.487Z,17.99
2019-01-06T01:00:24.069Z,17.98
2019-01-06T01:01:24.250Z,17.98
2019-01-06T01:02:24.704Z,17.99
2019-01-06T01:03:24.343Z,17.97
2019-01-06T01:04:24.647Z,17.97
2019-01-06T01:05:24.143Z,17.97
2019-01-06T01:06:24.580Z,17.96
2019-01-06T01:07:24.348Z,17.97
2019-01-06T01:08:24.560Z,17.96
2019-01-06T01:09:24.233Z,17.96
2019-01-06T01:10:24.576Z,17.95
2019-01-06T01:11:24.584Z,17.96
2019-01-06T01:12:24.164Z,17.95
2019-01-06T01:13:25.133Z,17.95
2019-01-06T01:14:24.188Z,17.95
2019-01-06T01:15:24.435Z,17.93
2019-01-06T01:16:24.241Z,17.95
2019-01-06T01:17:24.296Z,17.94
2019-01-06T01:18:24.242Z,17.93
2019-01-06T01:19:23.996Z,17.93
2019-01-06T01:20:24.206Z,17.94
2019-01-06T01:21:24.236Z,17.93
2019-01-06T01:22:24.096Z,17.93
2019-01-06T01:23:24.447Z,17.92
2019-01-06T01:24:24.274Z,17.91
2019-01-06T01:25:24.460Z,17.93
2019-01-06T01:26:24.090Z,17.9
2019-01-06T01:27:24.323Z,17.91
2019-01-06T01:28:24.443Z,17.9
2019-01-06T01:29:24.151Z,17.9
2019-01-06T01:30:24.180Z,17.9
2019-01-06T01:31:24.078Z,17.89
2019-01-06T01:32:24.313Z,17.9
2019-01-06T01:33:24.395Z,17.89
2019-01-06T01:34:24.105Z,17.88
2019-01-06T01:35:24.447Z,17.89
2019-01-06T01:36:24.385Z,17.88
2019-01-06T01:37:24.591Z,17.87
2019-01-06T01:38:24.350Z,17.87
2019-01-06T01:39:24.622Z,17.87
2019-01-06T01:40:25.139Z,17.86
2019-01-06T01:41:24.036Z,17.86
2019-01-06T01:42:24.563Z,17.86
2019-01-06T01:43:24.026Z,17.86
2019-01-06T01:44:25.102Z,17.86
2019-01-06T01:45:24.210Z,17.85
2019-01-06T01:46:24.166Z,17.85
2019-01-06T01:47:24.365Z,17.85
2019-01-06T01:48:24.516Z,17.83
2019-01-06T01:49:24.252Z,17.84
2019-01-06T01:50:24.244Z,17.83
2019-01-06T01:51:24.134Z,17.84
2019-01-06T01:52:24.278Z,17.82
2019-01-06T01:53:24.052Z,17.83
2019-01-06T01:54:24.612Z,17.83
2019-01-06T01:55:24.817Z,17.81
2019-01-06T01:56:24.196Z,17.83
2019-01-06T01:57:24.682Z,17.81
2019-01-06T01:58:24.161Z,17.81
2019-01-06T01:59:24.242Z,17.8
2019-01-06T02:00:24.700Z,17.8
2019-01-06T02:01:24.367Z,17.8
2019-01-06T02:02:24.281Z,17.8
2019-01-06T02:03:24.504Z,17.8
2019-01-06T02:04:24.713Z,17.78
2019-01-06T02:05:25.057Z,17.79
2019-01-06T02:06:24.279Z,17.77
2019-01-06T02:07:24.069Z,17.78
2019-01-06T02:08:24.506Z,17.77
2019-01-06T02:09:23.969Z,17.78
2019-01-06T02:10:24.583Z,17.78
2019-01-06T02:11:24.252Z,17.77
2019-01-06T02:12:24.163Z,17.77
2019-01-06T02:13:24.660Z,17.76
2019-01-06T02:14:24.326Z,17.76
2019-01-06T02:15:24.264Z,17.76
2019-01-06T02:16:24.251Z,17.75
2019-01-06T02:17:24.107Z,17.74
2019-01-06T02:18:24.505Z,17.74
2019-01-06T02:19:24.148Z,17.74
2019-01-06T02:20:24.064Z,17.74
2019-01-06T02:21:23.958Z,17.74
2019-01-06T02:22:24.123Z,17.74
2019-01-06T02:23:24.902Z,17.72
2019-01-06T02:24:24.964Z,17.73
2019-01-06T02:25:24.591Z,17.74
2019-01-06T02:26:24.488Z,17.73
2019-01-06T02:27:24.451Z,17.72
2019-01-06T02:28:24.411Z,17.71
2019-01-06T02:29:25.044Z,17.71
2019-01-06T02:30:24.625Z,17.71
2019-01-06T02:31:24.131Z,17.7
2019-01-06T02:32:24.150Z,17.72
2019-01-06T02:33:24.431Z,17.71
2019-01-06T02:34:24.240Z,17.71
2019-01-06T02:35:24.429Z,17.7
2019-01-06T02:36:24.633Z,17.7
2019-01-06T02:37:24.136Z,17.7
2019-01-06T02:38:24.157Z,17.69
2019-01-06T02:39:24.448Z,17.71
2019-01-06T02:40:24.121Z,17.69
2019-01-06T02:41:24.628Z,17.7
2019-01-06T02:42:24.282Z,17.69
2019-01-06T02:43:24.539Z,17.69
2019-01-06T02:44:24.250Z,17.69
2019-01-06T02:45:23.988Z,17.68
2019-01-06T02:46:24.244Z,17.67
2019-01-06T02:47:25.377Z,17.68
2019-01-06T02:48:24.394Z,17.68
2019-01-06T02:49:24.213Z,17.67
2019-01-06T02:50:24.646Z,17.67
2019-01-06T02:51:24.193Z,17.67
2019-01-06T02:52:24.081Z,17.66
2019-01-06T02:53:24.252Z,17.66
2019-01-06T02:54:24.176Z,17.66
2019-01-06T02:55:24.048Z,17.65
2019-01-06T02:56:24.439Z,17.66
2019-01-06T02:57:24.017Z,17.66
2019-01-06T02:58:24.305Z,17.66
2019-01-06T02:59:24.431Z,17.65
2019-01-06T03:00:24.010Z,17.66
2019-01-06T03:01:24.433Z,17.63
2019-01-06T03:02:24.150Z,17.64
2019-01-06T03:03:24.126Z,17.63
2019-01-06T03:04:24.371Z,17.64
2019-01-06T03:05:24.078Z,17.64
2019-01-06T03:06:24.262Z,17.63
2019-01-06T03:07:24.502Z,17.62
2019-01-06T03:08:24.571Z,17.62
2019-01-06T03:09:24.008Z,17.61
2019-01-06T03:10:24.297Z,17.61
2019-01-06T03:11:24.554Z,17.61
2019-01-06T03:12:24.091Z,17.62
2019-01-06T03:13:24.208Z,17.62
2019-01-06T03:14:24.093Z,17.61
2019-01-06T03:15:24.433Z,17.6
2019-01-06T03:16:24.687Z,17.6
2019-01-06T03:17:24.309Z,17.61
2019-01-06T03:18:24.130Z,17.6
2019-01-06T03:19:23.952Z,17.59
2019-01-06T03:20:24.485Z,17.6
2019-01-06T03:21:24.425Z,17.6
2019-01-06T03:22:24.652Z,17.59
2019-01-06T03:23:24.656Z,17.58
2019-01-06T03:24:24.503Z,17.59
2019-01-06T03:25:24.121Z,17.59
2019-01-06T03:26:24.595Z,17.58
2019-01-06T03:27:24.859Z,17.58
2019-01-06T03:28:24.345Z,17.58
2019-01-06T03:29:24.659Z,17.58
2019-01-06T03:30:24.640Z,17.58
2019-01-06T03:31:24.498Z,17.57
2019-01-06T03:32:24.580Z,17.57
2019-01-06T03:33:24.057Z,17.57
2019-01-06T03:34:24.149Z,17.56
2019-01-06T03:35:24.602Z,17.55
2019-01-06T03:36:24.020Z,17.54
2019-01-06T03:37:24.552Z,17.55
2019-01-06T03:38:24.048Z,17.55
2019-01-06T03:39:24.750Z,17.54
2019-01-06T03:40:24.425Z,17.54
2019-01-06T03:41:24.087Z,17.52
2019-01-06T03:42:24.235Z,17.54
2019-01-06T03:43:24.003Z,17.53
2019-01-06T03:44:24.607Z,17.53
2019-01-06T03:45:24.103Z,17.53
2019-01-06T03:46:24.302Z,17.53
2019-01-06T03:47:24.508Z,17.52
2019-01-06T03:48:24.352Z,17.52
2019-01-06T03:49:24.978Z,17.52
2019-01-06T03:50:24.193Z,17.53
2019-01-06T03:51:24.600Z,17.52
2019-01-06T03:52:24.194Z,17.52
2019-01-06T03:53:24.039Z,17.52
2019-01-06T03:54:24.939Z,17.52
2019-01-06T03:55:24.429Z,17.52
2019-01-06T03:56:25.057Z,17.52
2019-01-06T03:57:24.118Z,17.52
2019-01-06T03:58:24.838Z,17.52
2019-01-06T03:59:23.931Z,17.51
2019-01-06T04:00:24.118Z,17.5
2019-01-06T04:01:24.188Z,17.49
2019-01-06T04:02:24.071Z,17.49
2019-01-06T04:03:24.229Z,17.5
2019-01-06T04:04:24.267Z,17.49
2019-01-06T04:05:24.568Z,17.49
2019-01-06T04:06:24.422Z,17.49
2019-01-06T04:07:24.126Z,17.49
2019-01-06T04:08:24.113Z,17.48
2019-01-06T04:09:24.416Z,17.48
2019-01-06T04:10:24.663Z,17.48
2019-01-06T04:11:24.339Z,17.47
2019-01-06T04:12:24.359Z,17.47
2019-01-06T04:13:24.258Z,17.47
2019-01-06T04:14:24.688Z,17.46
2019-01-06T04:15:24.546Z,17.47
2019-01-06T04:16:24.639Z,17.46
2019-01-06T04:17:24.147Z,17.46
2019-01-06T04:18:24.556Z,17.46
2019-01-06T04:19:24.200Z,17.44
2019-01-06T04:20:24.282Z,17.44
2019-01-06T04:21:23.979Z,17.45
2019-01-06T04:22:24.551Z,17.44
2019-01-06T04:23:24.251Z,17.44
2019-01-06T04:24:24.304Z,17.44
2019-01-06T04:25:24.408Z,17.44
2019-01-06T04:26:24.215Z,17.44
2019-01-06T04:27:24.242Z,17.43
2019-01-06T04:28:24.286Z,17.43
2019-01-06T04:29:24.397Z,17.44
2019-01-06T04:30:24.237Z,17.44
2019-01-06T04:31:24.376Z,17.43
2019-01-06T04:32:24.124Z,17.43
2019-01-06T04:33:24.278Z,17.43
2019-01-06T04:34:24.594Z,17.43
2019-01-06T04:35:24.496Z,17.42
2019-01-06T04:36:24.081Z,17.43
2019-01-06T04:37:24.073Z,17.43
2019-01-06T04:38:24.037Z,17.43
2019-01-06T04:39:24.173Z,17.44
2019-01-06T04:40:24.601Z,17.44
2019-01-06T04:41:24.124Z,17.45
2019-01-06T04:42:24.510Z,17.44
2019-01-06T04:43:24.170Z,17.44
2019-01-06T04:44:24.211Z,17.45
2019-01-06T04:45:24.193Z,17.46
2019-01-06T04:46:24.235Z,17.46
2019-01-06T04:47:24.187Z,17.46
2019-01-06T04:48:24.409Z,17.46
2019-01-06T04:49:24.109Z,17.46
2019-01-06T04:50:24.053Z,17.47
2019-01-06T04:51:24.171Z,17.48
2019-01-06T04:52:24.402Z,17.49
2019-01-06T04:53:24.087Z,17.48
2019-01-06T04:54:24.462Z,17.49
2019-01-06T04:55:24.091Z,17.5
2019-01-06T04:56:24.219Z,17.51
2019-01-06T04:57:23.999Z,17.52
2019-01-06T04:58:24.118Z,17.52
2019-01-06T04:59:25.140Z,17.54
2019-01-06T05:00:24.642Z,17.55
2019-01-06T05:01:24.604Z,17.56
2019-01-06T05:02:24.358Z,17.57
2019-01-06T05:03:24.141Z,17.59
2019-01-06T05:04:24.912Z,17.6
2019-01-06T05:05:24.338Z,17.61
2019-01-06T05:06:24.677Z,17.64
2019-01-06T05:07:24.487Z,17.65
2019-01-06T05:08:24.166Z,17.67
2019-01-06T05:09:24.071Z,17.69
2019-01-06T05:10:24.213Z,17.7
2019-01-06T05:11:24.960Z,17.7
2019-01-06T05:12:24.432Z,17.73
2019-01-06T05:13:24.096Z,17.74
2019-01-06T05:14:24.048Z,17.74
2019-01-06T05:15:24.039Z,17.77
2019-01-06T05:16:24.008Z,17.79
2019-01-06T05:17:24.227Z,17.8
2019-01-06T05:18:24.544Z,17.81
2019-01-06T05:19:23.955Z,17.83
2019-01-06T05:20:24.117Z,17.86
2019-01-06T05:21:24.077Z,17.87
2019-01-06T05:22:24.156Z,17.89
2019-01-06T05:23:24.743Z,17.91
2019-01-06T05:24:23.990Z,17.92
2019-01-06T05:25:24.381Z,17.94
2019-01-06T05:26:24.821Z,17.96
2019-01-06T05:27:24.100Z,17.97
2019-01-06T05:28:24.601Z,17.99
2019-01-06T05:29:24.117Z,18
2019-01-06T05:30:24.042Z,18.02
2019-01-06T05:31:24.081Z,18.04
2019-01-06T05:32:24.983Z,18.04
2019-01-06T05:33:24.338Z,18.07
2019-01-06T05:34:24.980Z,18.07
2019-01-06T05:35:24.535Z,18.1
2019-01-06T05:36:24.101Z,18.12
2019-01-06T05:37:24.583Z,18.14
2019-01-06T05:38:24.437Z,18.13
2019-01-06T05:39:24.029Z,18.17
2019-01-06T05:40:24.437Z,18.18
2019-01-06T05:41:24.119Z,18.19
2019-01-06T05:42:24.278Z,18.2
2019-01-06T05:43:24.437Z,18.21
2019-01-06T05:44:24.513Z,18.22
2019-01-06T05:45:23.923Z,18.24
2019-01-06T05:46:24.310Z,18.26
2019-01-06T05:47:25.143Z,18.27
2019-01-06T05:48:24.082Z,18.29
2019-01-06T05:49:24.325Z,18.3
2019-01-06T05:50:24.417Z,18.31
2019-01-06T05:51:24.063Z,18.32
2019-01-06T05:52:23.963Z,18.34
2019-01-06T05:53:24.021Z,18.35
2019-01-06T05:54:24.159Z,18.35
2019-01-06T05:55:24.073Z,18.37
2019-01-06T05:56:24.346Z,18.39
2019-01-06T05:57:23.962Z,18.39
2019-01-06T05:58:24.446Z,18.4
2019-01-06T05:59:24.133Z,18.42
2019-01-06T06:00:24.198Z,18.42
2019-01-06T06:01:24.218Z,18.44
2019-01-06T06:02:24.104Z,18.45
2019-01-06T06:03:24.211Z,18.46
2019-01-06T06:04:24.114Z,18.48
2019-01-06T06:05:23.975Z,18.49
2019-01-06T06:06:24.223Z,18.5
2019-01-06T06:07:23.887Z,18.53
2019-01-06T06:08:24.128Z,18.53
2019-01-06T06:09:24.101Z,18.55
2019-01-06T06:10:24.062Z,18.55
2019-01-06T06:11:24.347Z,18.56
2019-01-06T06:12:24.454Z,18.58
2019-01-06T06:13:24.312Z,18.58
2019-01-06T06:14:24.288Z,18.61
2019-01-06T06:15:24.291Z,18.61
2019-01-06T06:16:24.540Z,18.62
2019-01-06T06:17:23.952Z,18.63
2019-01-06T06:18:24.115Z,18.65
2019-01-06T06:19:23.930Z,18.66
2019-01-06T06:20:24.232Z,18.66
2019-01-06T06:21:24.135Z,18.67
2019-01-06T06:22:24.258Z,18.69
2019-01-06T06:23:24.154Z,18.69
2019-01-06T06:24:23.902Z,18.7
2019-01-06T06:25:24.004Z,18.71
2019-01-06T06:26:24.227Z,18.72
2019-01-06T06:27:23.961Z,18.73
2019-01-06T06:28:24.150Z,18.74
2019-01-06T06:29:24.159Z,18.73
2019-01-06T06:30:24.224Z,18.74
2019-01-06T06:31:24.320Z,18.75
2019-01-06T06:32:24.014Z,18.75
2019-01-06T06:33:24.161Z,18.76
2019-01-06T06:34:23.912Z,18.76
2019-01-06T06:35:24.150Z,18.78
2019-01-06T06:36:23.990Z,18.77
2019-01-06T06:37:24.148Z,18.77
2019-01-06T06:38:24.310Z,18.78
2019-01-06T06:39:24.028Z,18.79
2019-01-06T06:40:24.339Z,18.78
2019-01-06T06:41:24.185Z,18.78
2019-01-06T06:42:24.279Z,18.79
2019-01-06T06:43:24.165Z,18.79
2019-01-06T06:44:24.340Z,18.79
2019-01-06T06:45:24.800Z,18.81
2019-01-06T06:46:24.502Z,18.81
2019-01-06T06:47:24.955Z,18.81
2019-01-06T06:48:24.323Z,18.81
2019-01-06T06:49:24.321Z,18.8
2019-01-06T06:50:24.172Z,18.82
2019-01-06T06:51:23.906Z,18.83
2019-01-06T06:52:24.356Z,18.82
2019-01-06T06:53:24.414Z,18.83
2019-01-06T06:54:24.290Z,18.84
2019-01-06T06:55:24.354Z,18.84
2019-01-06T06:56:24.127Z,18.86
2019-01-06T06:57:24.035Z,18.85
2019-01-06T06:58:24.082Z,18.86
2019-01-06T06:59:24.115Z,18.85
2019-01-06T07:00:24.241Z,18.86
2019-01-06T07:01:24.235Z,18.86
2019-01-06T07:02:25.066Z,18.86
2019-01-06T07:03:24.170Z,18.86
2019-01-06T07:04:24.005Z,18.87
2019-01-06T07:05:23.968Z,18.88
2019-01-06T07:06:24.432Z,18.87
2019-01-06T07:07:23.839Z,18.88
2019-01-06T07:08:24.112Z,18.89
2019-01-06T07:09:24.485Z,18.9
2019-01-06T07:10:24.264Z,18.9
2019-01-06T07:11:24.176Z,18.9
2019-01-06T07:12:23.843Z,18.9
2019-01-06T07:13:24.185Z,18.92
2019-01-06T07:14:24.132Z,18.92
2019-01-06T07:15:24.183Z,18.92
2019-01-06T07:16:24.177Z,18.94
2019-01-06T07:17:24.080Z,18.94
2019-01-06T07:18:24.141Z,18.94
2019-01-06T07:19:24.146Z,18.96
2019-01-06T07:20:24.002Z,18.96
2019-01-06T07:21:24.034Z,18.97
2019-01-06T07:22:24.025Z,18.97
2019-01-06T07:23:24.057Z,18.98
2019-01-06T07:24:24.454Z,18.99
2019-01-06T07:25:23.921Z,19
2019-01-06T07:26:24.318Z,19
2019-01-06T07:27:24.236Z,19
2019-01-06T07:28:24.963Z,19.01
2019-01-06T07:29:23.876Z,19.03
2019-01-06T07:30:23.982Z,19.04
2019-01-06T07:31:24.411Z,19.04
2019-01-06T07:32:24.065Z,19.04
2019-01-06T07:33:24.333Z,19.05
2019-01-06T07:34:23.925Z,19.06
2019-01-06T07:35:24.370Z,19.06
2019-01-06T07:36:24.604Z,19.07
2019-01-06T07:37:24.093Z,19.07
2019-01-06T07:38:24.113Z,19.07
2019-01-06T07:39:24.339Z,19.08
2019-01-06T07:40:24.216Z,19.09
2019-01-06T07:41:24.186Z,19.09
2019-01-06T07:42:24.240Z,19.09
2019-01-06T07:43:24.408Z,19.1
2019-01-06T07:44:24.169Z,19.1
2019-01-06T07:45:24.314Z,19.1
2019-01-06T07:46:23.949Z,19.12
2019-01-06T07:47:24.118Z,19.12
2019-01-06T07:48:24.043Z,19.12
2019-01-06T07:49:23.946Z,19.13
2019-01-06T07:50:24.391Z,19.13
2019-01-06T07:51:24.009Z,19.14
2019-01-06T07:52:24.061Z,19.14
2019-01-06T07:53:24.655Z,19.16
2019-01-06T07:54:23.953Z,19.16
2019-01-06T07:55:24.170Z,19.15
2019-01-06T07:56:23.983Z,19.17
2019-01-06T07:57:24.047Z,19.16
2019-01-06T07:58:24.155Z,19.16
2019-01-06T07:59:23.907Z,19.18
2019-01-06T08:00:24.136Z,19.19
2019-01-06T08:01:24.466Z,19.19
2019-01-06T08:02:24.244Z,19.2
2019-01-06T08:03:24.178Z,19.19
2019-01-06T08:04:24.409Z,19.19
2019-01-06T08:05:24.013Z,19.19
2019-01-06T08:06:24.044Z,19.19
2019-01-06T08:07:24.191Z,19.19
2019-01-06T08:08:24.081Z,19.19
2019-01-06T08:09:23.967Z,19.2
2019-01-06T08:10:24.153Z,19.21
2019-01-06T08:11:24.074Z,19.21
2019-01-06T08:12:24.109Z,19.2
2019-01-06T08:13:23.922Z,19.21
2019-01-06T08:14:24.150Z,19.21
2019-01-06T08:15:24.076Z,19.22
2019-01-06T08:16:24.073Z,19.23
2019-01-06T08:17:24.260Z,19.23
2019-01-06T08:18:23.961Z,19.22
2019-01-06T08:19:24.322Z,19.23
2019-01-06T08:20:23.971Z,19.24
2019-01-06T08:21:24.183Z,19.23
2019-01-06T08:22:24.093Z,19.23
2019-01-06T08:23:24.064Z,19.23
2019-01-06T08:24:24.041Z,19.23
2019-01-06T08:25:23.936Z,19.25
2019-01-06T08:26:24.248Z,19.24
2019-01-06T08:27:23.819Z,19.24
2019-01-06T08:28:24.646Z,19.25
2019-01-06T08:29:24.138Z,19.26
2019-01-06T08:30:24.345Z,19.25
2019-01-06T08:31:24.282Z,19.26
2019-01-06T08:32:23.930Z,19.26
2019-01-06T08:33:25.025Z,19.27
2019-01-06T08:34:24.177Z,19.27
2019-01-06T08:35:24.268Z,19.27
2019-01-06T08:36:24.101Z,19.28
2019-01-06T08:37:23.992Z,19.27
2019-01-06T08:38:24.131Z,19.27
2019-01-06T08:39:24.451Z,19.28
2019-01-06T08:40:24.248Z,19.28
2019-01-06T08:41:24.363Z,19.29
2019-01-06T08:42:24.433Z,19.28
2019-01-06T08:43:24.072Z,19.3
2019-01-06T08:44:23.872Z,19.29
2019-01-06T08:45:24.218Z,19.31
2019-01-06T08:46:24.543Z,19.3
2019-01-06T08:47:24.134Z,19.32
2019-01-06T08:48:24.314Z,19.32
2019-01-06T08:49:24.281Z,19.32
2019-01-06T08:50:23.949Z,19.33
2019-01-06T08:51:24.350Z,19.32
2019-01-06T08:52:24.381Z,19.32
2019-01-06T08:53:24.127Z,19.33
2019-01-06T08:54:23.836Z,19.33
2019-01-06T08:55:24.349Z,19.34
2019-01-06T08:56:24.228Z,19.34
2019-01-06T08:57:24.245Z,19.34
2019-01-06T08:58:24.083Z,19.35
2019-01-06T08:59:23.932Z,19.35
2019-01-06T09:00:24.092Z,19.34
2019-01-06T09:01:24.022Z,19.35
2019-01-06T09:02:24.005Z,19.36
2019-01-06T09:03:24.391Z,19.38
2019-01-06T09:04:24.172Z,19.38
2019-01-06T09:05:24.056Z,19.38
2019-01-06T09:06:24.203Z,19.37
2019-01-06T09:07:24.058Z,19.38
2019-01-06T09:08:24.455Z,19.38
2019-01-06T09:09:24.355Z,19.38
2019-01-06T09:10:24.125Z,19.39
2019-01-06T09:11:24.257Z,19.39
2019-01-06T09:12:24.957Z,19.4
2019-01-06T09:13:24.480Z,19.39
2019-01-06T09:14:24.145Z,19.4
2019-01-06T09:15:24.045Z,19.41
2019-01-06T09:16:24.089Z,19.41
2019-01-06T09:17:24.283Z,19.42
2019-01-06T09:18:24.103Z,19.42
2019-01-06T09:19:23.993Z,19.43
2019-01-06T09:20:24.068Z,19.44
2019-01-06T09:21:24.856Z,19.43
2019-01-06T09:22:24.265Z,19.44
2019-01-06T09:23:23.911Z,19.44
2019-01-06T09:24:23.962Z,19.44
2019-01-06T09:25:23.852Z,19.45
2019-01-06T09:26:24.330Z,19.46
2019-01-06T09:27:24.151Z,19.46
2019-01-06T09:28:24.038Z,19.47
2019-01-06T09:29:23.989Z,19.47
2019-01-06T09:30:24.847Z,19.47
2019-01-06T09:31:24.164Z,19.49
2019-01-06T09:32:23.811Z,19.48
2019-01-06T09:33:24.376Z,19.49
2019-01-06T09:34:24.605Z,19.49
2019-01-06T09:35:23.971Z,19.49
2019-01-06T09:36:24.416Z,19.5
2019-01-06T09:37:23.893Z,19.5
2019-01-06T09:38:24.389Z,19.51
2019-01-06T09:39:24.329Z,19.49
2019-01-06T09:40:24.279Z,19.5
2019-01-06T09:41:23.998Z,19.51
2019-01-06T09:42:24.863Z,19.5
2019-01-06T09:43:24.156Z,19.5
2019-01-06T09:44:23.883Z,19.5
2019-01-06T09:45:24.096Z,19.5
2019-01-06T09:46:24.240Z,19.51
2019-01-06T09:47:24.190Z,19.5
2019-01-06T09:48:24.054Z,19.51
2019-01-06T09:49:24.081Z,19.52
2019-01-06T09:50:24.122Z,19.51
2019-01-06T09:51:24.068Z,19.51
2019-01-06T09:52:23.960Z,19.52
2019-01-06T09:53:24.013Z,19.51
2019-01-06T09:54:24.345Z,19.51
2019-01-06T09:55:23.906Z,19.51
2019-01-06T09:56:24.279Z,19.52
2019-01-06T09:57:23.954Z,19.51
2019-01-06T09:58:24.014Z,19.5
2019-01-06T09:59:23.937Z,19.51
2019-01-06T10:00:24.134Z,19.5
2019-01-06T10:01:23.974Z,19.51
2019-01-06T10:02:24.284Z,19.49
2019-01-06T10:03:24.145Z,19.48
2019-01-06T10:04:23.816Z,19.49
2019-01-06T10:05:24.035Z,19.49
2019-01-06T10:06:24.446Z,19.49
2019-01-06T10:07:24.245Z,19.47
2019-01-06T10:08:24.161Z,19.48
2019-01-06T10:09:23.811Z,19.48
2019-01-06T10:10:24.797Z,19.48
2019-01-06T10:11:23.818Z,19.47
2019-01-06T10:12:23.878Z,19.47
2019-01-06T10:13:24.039Z,19.47
2019-01-06T10:14:23.950Z,19.46
2019-01-06T10:15:24.322Z,19.46
2019-01-06T10:16:23.916Z,19.45
2019-01-06T10:17:23.972Z,19.45
2019-01-06T10:18:24.268Z,19.46
2019-01-06T10:19:23.874Z,19.46
2019-01-06T10:20:24.095Z,19.45
2019-01-06T10:21:24.202Z,19.46
2019-01-06T10:22:24.370Z,19.45
2019-01-06T10:23:24.141Z,19.45
2019-01-06T10:24:24.612Z,19.44
2019-01-06T10:25:23.993Z,19.44
2019-01-06T10:26:23.826Z,19.45
2019-01-06T10:27:24.390Z,19.45
2019-01-06T10:28:24.263Z,19.44
2019-01-06T10:29:24.569Z,19.44
2019-01-06T10:30:24.088Z,19.45
2019-01-06T10:31:26.681Z,19.44
2019-01-06T10:32:24.332Z,19.45
2019-01-06T10:33:23.983Z,19.46
2019-01-06T10:34:23.972Z,19.45
2019-01-06T10:35:24.285Z,19.46
2019-01-06T10:36:24.308Z,19.43
2019-01-06T10:37:23.994Z,19.47
2019-01-06T10:38:24.367Z,19.48
2019-01-06T10:39:25.236Z,19.49
2019-01-06T10:40:24.674Z,19.5
2019-01-06T10:41:24.825Z,19.51
2019-01-06T10:42:23.935Z,19.52
2019-01-06T10:43:23.778Z,19.52
2019-01-06T10:44:24.198Z,19.54
2019-01-06T10:45:24.899Z,19.57
2019-01-06T10:46:24.312Z,19.58
2019-01-06T10:47:23.918Z,19.6
2019-01-06T10:48:24.120Z,19.61
2019-01-06T10:49:24.487Z,19.64
2019-01-06T10:50:24.135Z,19.64
2019-01-06T10:51:24.599Z,19.62
2019-01-06T10:52:23.907Z,19.63
2019-01-06T10:53:24.759Z,19.63
2019-01-06T10:54:24.075Z,19.63
2019-01-06T10:55:23.981Z,19.64
2019-01-06T10:56:24.001Z,19.64
2019-01-06T10:57:24.529Z,19.66
2019-01-06T10:58:24.273Z,19.67
2019-01-06T10:59:23.959Z,19.68
2019-01-06T11:00:24.336Z,19.69
2019-01-06T11:01:24.826Z,19.7
2019-01-06T11:02:25.478Z,19.7
2019-01-06T11:03:24.518Z,19.73
2019-01-06T11:04:24.628Z,19.72
2019-01-06T11:05:24.793Z,19.71
2019-01-06T11:06:25.939Z,19.72
2019-01-06T11:07:24.166Z,19.73
2019-01-06T11:08:24.632Z,19.74
2019-01-06T11:09:24.501Z,19.74
2019-01-06T11:10:24.558Z,19.75
2019-01-06T11:11:24.566Z,19.74
2019-01-06T11:12:25.615Z,19.74
2019-01-06T11:13:24.841Z,19.75
2019-01-06T11:14:25.534Z,19.75
2019-01-06T11:15:24.264Z,19.75
2019-01-06T11:16:24.956Z,19.76
2019-01-06T11:17:24.955Z,19.75
2019-01-06T11:18:24.212Z,19.77
2019-01-06T11:19:24.704Z,19.75
2019-01-06T11:20:25.491Z,19.77
2019-01-06T11:21:25.435Z,19.78
2019-01-06T11:22:25.374Z,19.77
2019-01-06T11:23:24.367Z,19.79
2019-01-06T11:24:25.305Z,19.8
2019-01-06T11:25:24.405Z,19.79
2019-01-06T11:26:25.217Z,19.81
2019-01-06T11:27:26.518Z,19.8
2019-01-06T11:28:24.954Z,19.8
2019-01-06T11:29:25.043Z,19.8
2019-01-06T11:30:24.733Z,19.8
2019-01-06T11:31:25.850Z,19.81
2019-01-06T11:32:24.330Z,19.81
2019-01-06T11:33:25.161Z,19.81
2019-01-06T11:34:26.353Z,19.82
2019-01-06T11:35:25.129Z,19.83
2019-01-06T11:36:24.664Z,19.84
2019-01-06T11:37:25.340Z,19.83
2019-01-06T11:38:24.490Z,19.85
2019-01-06T11:39:24.188Z,19.85
2019-01-06T11:40:25.458Z,19.87
2019-01-06T11:41:24.196Z,19.86
2019-01-06T11:42:25.052Z,19.88
2019-01-06T11:43:25.035Z,19.88
2019-01-06T11:44:24.099Z,19.89
2019-01-06T11:45:24.420Z,19.9
2019-01-06T11:46:24.616Z,19.9
2019-01-06T11:47:25.109Z,19.91
2019-01-06T11:48:24.257Z,19.91
2019-01-06T11:49:24.997Z,19.92
2019-01-06T11:50:24.105Z,19.95
2019-01-06T11:51:24.661Z,19.95
2019-01-06T11:52:25.300Z,19.96
2019-01-06T11:53:26.131Z,19.97
2019-01-06T11:54:24.992Z,19.97
2019-01-06T11:55:25.100Z,19.98
2019-01-06T11:56:25.501Z,20.01
2019-01-06T11:57:24.906Z,20.01
2019-01-06T11:58:24.734Z,20.03
2019-01-06T11:59:24.842Z,20.04
2019-01-06T12:00:24.419Z,20.03
2019-01-06T12:01:25.365Z,20.05
2019-01-06T12:02:25.181Z,20.04
2019-01-06T12:03:25.044Z,20.05
2019-01-06T12:04:23.861Z,20.05
2019-01-06T12:05:24.443Z,20.04
2019-01-06T12:06:24.082Z,20.05
2019-01-06T12:07:23.776Z,20.05
2019-01-06T12:08:24.130Z,20.05
2019-01-06T12:09:24.318Z,20.04
2019-01-06T12:10:23.877Z,20.02
2019-01-06T12:11:23.892Z,20.01
2019-01-06T12:12:24.348Z,20
2019-01-06T12:13:24.044Z,19.99
2019-01-06T12:14:23.892Z,19.97
2019-01-06T12:15:24.214Z,19.96
2019-01-06T12:16:24.075Z,19.95
2019-01-06T12:17:23.847Z,19.93
2019-01-06T12:18:24.114Z,19.93
2019-01-06T12:19:24.195Z,19.91
2019-01-06T12:20:24.061Z,19.91
2019-01-06T12:21:23.933Z,19.9
2019-01-06T12:22:24.140Z,19.91
2019-01-06T12:23:24.346Z,19.9
2019-01-06T12:24:23.872Z,19.88
2019-01-06T12:25:24.288Z,19.89
2019-01-06T12:26:24.174Z,19.88
2019-01-06T12:27:24.816Z,19.87
2019-01-06T12:28:24.912Z,19.86
2019-01-06T12:29:24.388Z,19.88
2019-01-06T12:30:24.303Z,19.9
2019-01-06T12:31:24.421Z,19.92
2019-01-06T12:32:23.798Z,19.94
2019-01-06T12:33:24.068Z,19.97
2019-01-06T12:34:24.420Z,19.97
2019-01-06T12:35:24.253Z,19.97
2019-01-06T12:36:24.006Z,19.98
2019-01-06T12:37:23.778Z,19.98
2019-01-06T12:38:24.947Z,19.98
2019-01-06T12:39:24.503Z,19.97
2019-01-06T12:40:24.359Z,19.97
2019-01-06T12:41:24.057Z,19.97
2019-01-06T12:42:23.845Z,19.96
2019-01-06T12:43:24.579Z,19.96
2019-01-06T12:44:23.867Z,19.96
2019-01-06T12:45:24.095Z,19.95
2019-01-06T12:46:23.831Z,19.95
2019-01-06T12:47:24.073Z,19.94
2019-01-06T12:48:24.143Z,19.94
2019-01-06T12:49:23.911Z,19.94
2019-01-06T12:50:23.844Z,19.94
2019-01-06T12:51:24.904Z,19.95
2019-01-06T12:52:23.918Z,19.93
2019-01-06T12:53:24.340Z,19.94
2019-01-06T12:54:23.771Z,19.93
2019-01-06T12:55:24.457Z,19.93